Time;durP1;ratioP1;P1;durP2;ratioP2;P2;SDS_P1;SDS_P2;PMS_P1;PMS_P2;Temp;Humidity;BMP_temperature;BMP_pressure;BME280_temperature;BME280_humidity;BME280_pressure;Samples;Min_cycle;Max_cycle;Signal;HPM_P1;HPM_P2
2023/07/09 00:01:17;;;;;;;2.58;2.15;;;26.90;77.30;;;;;;10946875;32;19944;-72
2023/07/09 00:07:32;;;;;;;5.00;2.58;;;27.00;77.40;;;;;;10933695;32;20391;-72
2023/07/09 00:13:34;;;;;;;7.18;3.28;;;27.00;77.70;;;;;;10947015;32;20039;-72
2023/07/09 00:19:36;;;;;;;5.03;2.53;;;27.00;78.50;;;;;;10947113;32;20310;-72
2023/07/09 00:25:41;;;;;;;6.12;2.28;;;27.00;78.30;;;;;;10946910;32;20023;-72
2023/07/09 00:31:43;;;;;;;3.78;2.45;;;26.80;78.20;;;;;;10932506;32;20583;-72
2023/07/09 00:37:45;;;;;;;3.78;2.55;;;26.70;78.30;;;;;;10946435;32;20020;-72
2023/07/09 00:43:49;;;;;;;3.97;2.50;;;26.60;78.30;;;;;;10931402;32;20034;-72
2023/07/09 00:50:21;;;;;;;5.35;2.70;;;26.60;78.10;;;;;;10945903;32;20023;-72
2023/07/09 00:56:53;;;;;;;3.47;2.00;;;26.60;78.00;;;;;;10793774;33;20055;-72
2023/07/09 01:02:58;;;;;;;4.07;2.20;;;26.50;78.00;;;;;;10780280;33;20032;-72
2023/07/09 01:09:02;;;;;;;3.22;1.77;;;26.60;78.00;;;;;;10792315;33;20395;-72
2023/07/09 01:15:07;;;;;;;5.25;2.45;;;26.60;78.80;;;;;;10791848;33;20058;-71
2023/07/09 01:21:15;;;;;;;4.82;2.62;;;26.50;78.70;;;;;;10791747;33;20052;-72
2023/07/09 01:27:46;;;;;;;4.82;3.70;;;26.40;78.60;;;;;;10792451;33;20040;-72
2023/07/09 01:33:48;;;;;;;3.78;2.47;;;26.30;78.60;;;;;;10941320;32;20045;-72
2023/07/09 01:39:52;;;;;;;4.03;2.35;;;26.20;78.70;;;;;;10930892;32;20027;-72
2023/07/09 01:45:57;;;;;;;3.92;2.55;;;25.90;78.90;;;;;;10944085;32;20011;-72
2023/07/09 01:52:01;;;;;;;3.78;2.45;;;25.80;79.10;;;;;;10943687;32;20345;-72
2023/07/09 01:58:07;;;;;;;3.20;2.10;;;25.90;79.30;;;;;;10943556;32;20405;-72
2023/07/09 02:04:09;;;;;;;6.30;3.42;;;25.90;79.90;;;;;;10929917;32;20434;-72
2023/07/09 02:10:12;;;;;;;6.50;3.87;;;26.00;79.60;;;;;;10943142;32;20337;-72
2023/07/09 02:16:14;;;;;;;5.07;3.50;;;25.90;79.40;;;;;;10929004;32;20031;-72
2023/07/09 02:22:16;;;;;;;6.40;3.70;;;25.90;79.30;;;;;;10916231;32;20031;-72
2023/07/09 02:28:18;;;;;;;5.30;3.37;;;25.80;79.30;;;;;;10942519;32;20023;-72
2023/07/09 02:34:21;;;;;;;5.40;3.22;;;25.80;79.20;;;;;;10942301;32;20023;-72
2023/07/09 02:40:22;;;;;;;6.95;3.67;;;25.80;79.10;;;;;;10942271;32;20026;-72
2023/07/09 02:46:24;;;;;;;3.22;2.12;;;25.70;79.10;;;;;;10940681;32;20019;-72
2023/07/09 02:52:26;;;;;;;5.70;3.22;;;25.60;79.20;;;;;;10941739;32;20423;-72
2023/07/09 02:58:28;;;;;;;4.65;2.78;;;25.60;79.10;;;;;;10942002;32;20385;-72
2023/07/09 03:04:31;;;;;;;6.35;3.58;;;25.70;79.50;;;;;;10941814;32;20348;-72
2023/07/09 03:10:33;;;;;;;6.28;4.20;;;25.70;79.30;;;;;;10947151;32;20345;-72
2023/07/09 03:16:35;;;;;;;7.70;3.05;;;25.70;79.10;;;;;;10935374;32;20361;-72
2023/07/09 03:22:37;;;;;;;4.12;2.80;;;25.60;79.20;;;;;;10949018;32;20024;-72
2023/07/09 03:28:38;;;;;;;5.07;2.85;;;25.40;79.40;;;;;;10948824;32;20023;-71
2023/07/09 03:34:40;;;;;;;5.65;3.50;;;25.40;79.50;;;;;;10935149;32;20033;-72
2023/07/09 03:40:42;;;;;;;6.95;3.25;;;25.40;79.90;;;;;;10948524;32;20045;-72
2023/07/09 03:46:44;;;;;;;5.53;3.30;;;25.50;79.80;;;;;;10948348;32;20042;-72
2023/07/09 03:52:46;;;;;;;7.40;3.20;;;25.30;79.70;;;;;;10947967;32;20023;-72
2023/07/09 03:58:47;;;;;;;4.45;3.10;;;25.20;80.00;;;;;;10947852;32;20042;-72
2023/07/09 04:04:49;;;;;;;5.65;3.75;;;25.20;80.00;;;;;;10947696;32;20081;-72
2023/07/09 04:10:55;;;;;;;4.82;3.33;;;25.30;79.90;;;;;;10929304;32;20077;-72
2023/07/09 04:16:59;;;;;;;6.70;3.08;;;25.30;79.80;;;;;;10947106;32;20431;-72
2023/07/09 04:23:04;;;;;;;7.68;4.28;;;25.20;79.90;;;;;;10932032;32;20039;-72
2023/07/09 04:29:06;;;;;;;5.00;3.28;;;25.30;79.80;;;;;;10946689;32;20032;-72
2023/07/09 04:35:08;;;;;;;5.75;3.22;;;25.20;79.80;;;;;;10946547;32;20022;-72
2023/07/09 04:41:10;;;;;;;4.47;3.12;;;25.30;80.40;;;;;;10930942;32;20031;-72
2023/07/09 04:47:12;;;;;;;5.90;3.50;;;25.40;80.80;;;;;;10946212;32;20046;-72
2023/07/09 04:53:14;;;;;;;8.57;5.55;;;25.40;80.70;;;;;;10945856;32;20054;-72
2023/07/09 04:59:16;;;;;;;5.75;4.22;;;25.50;80.60;;;;;;10945751;32;20333;-72
2023/07/09 05:05:18;;;;;;;7.15;5.25;;;25.60;80.40;;;;;;10945567;32;20049;-72
2023/07/09 05:11:19;;;;;;;4.55;2.97;;;25.60;80.40;;;;;;10945326;32;20054;-72
2023/07/09 05:17:25;;;;;;;8.93;4.60;;;25.70;80.90;;;;;;10941163;32;20038;-72
2023/07/09 05:23:27;;;;;;;4.32;2.62;;;25.80;81.30;;;;;;10942142;32;20045;-73
2023/07/09 05:29:33;;;;;;;8.43;4.60;;;25.80;81.20;;;;;;10944234;32;20054;-72
2023/07/09 05:35:36;;;;;;;6.15;4.12;;;25.90;81.20;;;;;;10944379;32;20381;-72
2023/07/09 05:41:38;;;;;;;5.65;3.17;;;26.00;81.40;;;;;;10944117;32;20397;-72
2023/07/09 05:47:39;;;;;;;6.97;5.07;;;26.20;81.10;;;;;;10944055;32;20462;-72
2023/07/09 05:53:42;;;;;;;8.68;6.00;;;26.30;81.10;;;;;;10943761;32;20049;-73
2023/07/09 05:59:55;;;;;;;8.15;5.10;;;26.40;80.80;;;;;;10943607;32;20020;-72
2023/07/09 06:05:58;;;;;;;9.48;5.40;;;26.60;80.70;;;;;;10943141;32;20446;-72
2023/07/09 06:12:01;;;;;;;8.52;4.78;;;26.70;81.00;;;;;;10944224;32;20424;-72
2023/07/09 06:18:03;;;;;;;9.90;5.32;;;26.80;81.20;;;;;;10943088;32;20331;-71
2023/07/09 06:24:06;;;;;;;7.47;4.75;;;26.80;81.20;;;;;;10943105;32;20022;-73
2023/07/09 06:30:09;;;;;;;9.27;5.05;;;26.90;81.00;;;;;;10943184;32;20031;-72
2023/07/09 06:36:10;;;;;;;7.07;4.62;;;27.10;80.40;;;;;;10943092;32;20463;-72
2023/07/09 06:42:13;;;;;;;8.13;6.05;;;27.20;80.10;;;;;;10942647;32;20027;-72
2023/07/09 06:48:20;;;;;;;9.35;5.00;;;27.30;80.00;;;;;;10925899;32;20054;-73
2023/07/09 06:54:22;;;;;;;9.65;6.20;;;27.40;80.10;;;;;;10939564;32;20034;-73
2023/07/09 07:00:24;;;;;;;7.03;4.62;;;27.50;80.00;;;;;;10940278;32;20034;-73
2023/07/09 07:06:26;;;;;;;8.95;6.37;;;27.60;79.80;;;;;;10923359;32;20030;-72
2023/07/09 07:12:41;;;;;;;9.38;4.55;;;27.70;79.10;;;;;;10942868;32;20027;-73
2023/07/09 07:18:43;;;;;;;9.82;6.65;;;27.80;78.70;;;;;;10942623;32;20027;-73
2023/07/09 07:24:45;;;;;;;10.35;5.35;;;27.80;78.40;;;;;;10940124;32;20031;-72
2023/07/09 07:30:57;;;;;;;9.02;5.62;;;27.80;78.40;;;;;;10753276;27;7003556;-73
2023/07/09 07:36:59;;;;;;;7.10;5.05;;;27.80;78.40;;;;;;10965158;32;20053;-74
2023/07/09 07:43:01;;;;;;;7.47;4.07;;;27.90;77.70;;;;;;10980084;32;20019;-72
2023/07/09 07:49:03;;;;;;;6.32;4.20;;;28.10;77.00;;;;;;10979929;32;20023;-73
2023/07/09 07:55:07;;;;;;;9.57;5.75;;;28.30;76.80;;;;;;10974966;32;20447;-72
2023/07/09 08:01:09;;;;;;;7.32;4.75;;;28.30;76.80;;;;;;10981993;32;20035;-73
2023/07/09 08:07:12;;;;;;;7.55;4.30;;;28.40;77.10;;;;;;10971674;32;20435;-73
2023/07/09 08:13:14;;;;;;;9.55;6.57;;;28.60;76.30;;;;;;10981773;32;20396;-73
2023/07/09 08:19:19;;;;;;;8.65;5.47;;;28.60;75.40;;;;;;10985807;32;20018;-73
2023/07/09 08:25:21;;;;;;;6.68;4.43;;;28.70;75.20;;;;;;10972503;32;20027;-73
2023/07/09 08:31:23;;;;;;;7.78;5.15;;;28.80;76.10;;;;;;10984516;32;20046;-73
2023/07/09 08:37:25;;;;;;;6.60;4.05;;;28.90;75.30;;;;;;10959295;32;20315;-73
2023/07/09 08:43:35;;;;;;;9.30;4.10;;;29.00;75.10;;;;;;10933515;32;20019;-72
2023/07/09 08:49:43;;;;;;;12.88;4.18;;;29.10;74.60;;;;;;10947117;32;20007;-73
2023/07/09 08:55:49;;;;;;;5.70;3.83;;;29.20;75.00;;;;;;10930850;32;20053;-73
2023/07/09 09:01:59;;;;;;;6.62;4.28;;;29.30;74.60;;;;;;10946497;32;20034;-73
2023/07/09 09:08:24;;;;;;;6.43;3.50;;;29.50;74.60;;;;;;10946113;32;20041;-73
2023/07/09 09:14:37;;;;;;;6.90;4.12;;;29.70;74.30;;;;;;10866203;32;20043;-74
2023/07/09 09:20:41;;;;;;;7.45;5.28;;;29.80;74.20;;;;;;10866490;32;20038;-73
2023/07/09 09:26:44;;;;;;;6.82;4.15;;;29.90;72.80;;;;;;10866538;32;20314;-73
2023/07/09 09:32:54;;;;;;;6.72;3.92;;;30.00;72.70;;;;;;10866346;32;20050;-73
2023/07/09 09:39:02;;;;;;;4.65;3.33;;;30.10;72.10;;;;;;10866968;32;20050;-73
2023/07/09 09:45:13;;;;;;;7.93;4.45;;;30.30;71.40;;;;;;10853936;32;20349;-73
2023/07/09 09:51:17;;;;;;;5.00;3.05;;;30.40;70.70;;;;;;10927136;32;20049;-72
2023/07/09 09:57:23;;;;;;;5.80;2.97;;;30.50;69.70;;;;;;10944212;32;20011;-73
2023/07/09 10:03:36;;;;;;;5.95;3.92;;;30.50;69.10;;;;;;10944670;32;20015;-72
2023/07/09 10:09:47;;;;;;;5.78;3.70;;;30.60;67.70;;;;;;10945567;32;20049;-72
2023/07/09 10:16:17;;;;;;;5.07;2.65;;;30.70;67.60;;;;;;10942869;32;20038;-73
2023/07/09 10:22:40;;;;;;;6.53;3.45;;;30.80;67.30;;;;;;10944796;32;20030;-72
2023/07/09 10:28:47;;;;;;;6.70;4.28;;;30.90;66.10;;;;;;10942520;32;20042;-73
2023/07/09 10:35:07;;;;;;;7.20;4.30;;;31.00;65.40;;;;;;10942432;32;20042;-73
2023/07/09 10:41:12;;;;;;;7.20;4.53;;;31.30;64.90;;;;;;10942319;32;20041;-73
2023/07/09 10:47:52;;;;;;;6.30;3.40;;;31.50;64.30;;;;;;10942253;32;20401;-73
2023/07/09 10:54:15;;;;;;;8.45;4.62;;;31.60;63.70;;;;;;10738088;33;20175;-73
2023/07/09 11:00:24;;;;;;;10.93;4.32;;;31.90;62.30;;;;;;10752378;33;20351;-73
2023/07/09 11:06:45;;;;;;;6.40;3.58;;;32.00;62.30;;;;;;10752405;33;20059;-73
2023/07/09 11:12:59;;;;;;;7.55;4.28;;;32.30;61.70;;;;;;10752148;33;20391;-73
2023/07/09 11:19:06;;;;;;;6.53;3.85;;;32.50;61.00;;;;;;10752745;33;20009;-72
2023/07/09 11:25:14;;;;;;;7.15;3.70;;;32.60;60.60;;;;;;10752016;33;20009;-72
2023/07/09 11:31:36;;;;;;;7.47;3.92;;;32.80;59.80;;;;;;10938758;32;20027;-72
2023/07/09 11:37:46;;;;;;;6.93;3.78;;;33.00;59.00;;;;;;10935154;32;20015;-73
2023/07/09 11:43:49;;;;;;;5.95;3.00;;;33.10;58.70;;;;;;10934519;32;20049;-73
2023/07/09 11:50:02;;;;;;;5.43;3.08;;;33.30;58.20;;;;;;10948267;32;20038;-73
2023/07/09 11:56:07;;;;;;;12.55;3.72;;;33.50;58.60;;;;;;10945533;32;20104;-72
2023/07/09 12:02:19;;;;;;;12.32;3.58;;;33.60;57.10;;;;;;10934258;32;20337;-73
2023/07/09 12:08:33;;;;;;;7.70;4.20;;;33.70;56.30;;;;;;10947597;32;20027;-73
2023/07/09 12:14:35;;;;;;;6.68;4.37;;;33.90;55.80;;;;;;10947433;32;20341;-72
2023/07/09 12:20:38;;;;;;;6.80;3.92;;;33.90;56.60;;;;;;10947197;32;20045;-73
2023/07/09 12:26:41;;;;;;;12.95;3.47;;;34.00;56.60;;;;;;10946981;32;20030;-73
2023/07/09 12:32:57;;;;;;;10.70;4.50;;;34.00;55.70;;;;;;10909003;32;20015;-73
2023/07/09 12:39:03;;;;;;;9.23;4.45;;;34.10;55.40;;;;;;10908295;32;20027;-73
2023/07/09 12:45:08;;;;;;;;;;;34.20;55.20;;;;;;10908680;32;20019;-73
2023/07/09 12:51:10;;;;;;;7.45;4.03;;;34.10;56.10;;;;;;10908354;32;19931;-74
2023/07/09 12:57:17;;;;;;;6.87;4.18;;;34.00;56.10;;;;;;10892940;32;20023;-73
2023/07/09 13:03:29;;;;;;;5.78;3.70;;;33.90;59.00;;;;;;10907612;32;20393;-73
2023/07/09 13:09:31;;;;;;;6.05;4.50;;;34.10;57.80;;;;;;10907971;32;20073;-72
2023/07/09 13:15:42;;;;;;;6.28;3.55;;;34.10;57.20;;;;;;10907604;32;20046;-73
2023/07/09 13:21:45;;;;;;;6.28;4.00;;;34.10;56.80;;;;;;10894071;32;20016;-73
2023/07/09 13:27:47;;;;;;;4.72;3.33;;;34.20;57.00;;;;;;10913213;32;20022;-72
2023/07/09 13:33:59;;;;;;;7.87;3.97;;;34.20;56.10;;;;;;10944110;32;20019;-73
2023/07/09 13:40:01;;;;;;;7.15;4.47;;;34.10;56.70;;;;;;10944338;32;20046;-73
2023/07/09 13:46:06;;;;;;;7.55;3.83;;;34.10;56.30;;;;;;10944285;32;20015;-72
2023/07/09 13:52:21;;;;;;;5.93;3.27;;;34.00;56.20;;;;;;10943654;32;20431;-72
2023/07/09 13:58:25;;;;;;;6.95;3.83;;;34.00;55.70;;;;;;10943799;32;20015;-73
2023/07/09 14:04:28;;;;;;;6.43;4.20;;;34.10;55.20;;;;;;10943536;32;20018;-73
2023/07/09 14:10:30;;;;;;;4.68;2.83;;;34.20;55.10;;;;;;10943244;32;20042;-73
2023/07/09 14:16:32;;;;;;;11.55;4.03;;;34.20;54.90;;;;;;10943295;32;20357;-73
2023/07/09 14:22:36;;;;;;;10.45;4.72;;;34.10;54.70;;;;;;10942944;32;20015;-74
2023/07/09 14:28:38;;;;;;;4.53;2.95;;;34.00;54.90;;;;;;10942585;32;20027;-74
2023/07/09 14:34:40;;;;;;;7.65;4.68;;;33.90;57.20;;;;;;10928443;32;20034;-73
2023/07/09 14:40:44;;;;;;;5.65;3.10;;;33.90;58.20;;;;;;10938217;32;20065;-73
2023/07/09 14:46:46;;;;;;;6.70;2.83;;;33.80;58.00;;;;;;10942176;32;20023;-73
2023/07/09 14:52:49;;;;;;;5.80;3.60;;;34.00;57.00;;;;;;10942008;32;20328;-74
2023/07/09 14:58:51;;;;;;;4.87;3.22;;;34.10;56.30;;;;;;10937939;32;20069;-73
2023/07/09 15:04:53;;;;;;;5.45;2.83;;;34.10;55.80;;;;;;10941317;32;20345;-73
2023/07/09 15:10:55;;;;;;;8.05;4.35;;;34.10;55.80;;;;;;10953733;32;20027;-74
2023/07/09 15:16:57;;;;;;;6.03;3.97;;;34.20;55.60;;;;;;10979197;32;20018;-73
2023/07/09 15:23:00;;;;;;;4.35;2.62;;;34.20;56.40;;;;;;10975032;32;20023;-74
2023/07/09 15:29:02;;;;;;;3.80;2.22;;;34.20;55.80;;;;;;10953481;27;20067;-73
2023/07/09 15:35:05;;;;;;;6.55;3.50;;;34.20;55.60;;;;;;10903593;32;20046;-74
2023/07/09 15:41:14;;;;;;;6.53;3.35;;;34.20;55.40;;;;;;10941093;32;20037;-73
2023/07/09 15:47:19;;;;;;;5.07;3.00;;;34.30;55.20;;;;;;10940950;32;20394;-74
2023/07/09 15:53:22;;;;;;;8.90;4.30;;;34.30;55.10;;;;;;10940784;32;20047;-73
2023/07/09 15:59:33;;;;;;;6.25;3.08;;;34.30;55.30;;;;;;10922753;32;20031;-73
2023/07/09 16:05:37;;;;;;;6.07;3.50;;;34.30;55.70;;;;;;10926839;32;20053;-73
2023/07/09 16:11:59;;;;;;;4.82;2.33;;;34.20;55.50;;;;;;10940531;32;20020;-74
2023/07/09 16:18:04;;;;;;;4.60;2.90;;;34.30;55.40;;;;;;10932025;32;20459;-73
2023/07/09 16:24:25;;;;;;;5.47;2.85;;;34.30;55.30;;;;;;10944981;32;20023;-73
2023/07/09 16:30:29;;;;;;;4.43;3.03;;;34.20;57.00;;;;;;10944131;32;20043;-73
2023/07/09 16:36:31;;;;;;;4.97;2.85;;;34.20;55.80;;;;;;10946704;32;20027;-73
2023/07/09 16:42:33;;;;;;;8.10;3.28;;;34.20;55.70;;;;;;10946514;32;20015;-73
2023/07/09 16:48:35;;;;;;;5.47;2.50;;;34.30;55.50;;;;;;10946393;32;20419;-73
2023/07/09 16:54:37;;;;;;;6.10;3.20;;;34.30;55.50;;;;;;10946017;32;20019;-73
2023/07/09 17:00:39;;;;;;;3.78;2.30;;;34.20;55.40;;;;;;10945903;32;20038;-73
2023/07/09 17:06:44;;;;;;;4.80;2.67;;;34.20;55.40;;;;;;10942350;32;20348;-73
2023/07/09 17:12:53;;;;;;;5.18;2.37;;;34.10;55.50;;;;;;10945285;32;20023;-72
2023/07/09 17:18:55;;;;;;;5.65;2.28;;;34.10;55.70;;;;;;10931365;32;20045;-73
2023/07/09 17:24:57;;;;;;;3.85;2.45;;;34.00;55.50;;;;;;10930911;32;20035;-73
2023/07/09 17:31:00;;;;;;;5.70;2.92;;;33.90;55.70;;;;;;10944226;32;20015;-73
2023/07/09 17:37:02;;;;;;;4.65;2.80;;;33.90;56.50;;;;;;10930967;32;20388;-73
2023/07/09 17:43:18;;;;;;;4.82;2.53;;;33.70;57.30;;;;;;10944365;32;20037;-72
2023/07/09 17:49:31;;;;;;;10.03;3.83;;;33.60;57.30;;;;;;10944045;32;20038;-72
2023/07/09 17:55:33;;;;;;;5.70;2.80;;;33.50;58.40;;;;;;10943603;32;20045;-72
2023/07/09 18:01:35;;;;;;;5.32;2.55;;;33.90;57.80;;;;;;10939449;32;20041;-72
2023/07/09 18:07:37;;;;;;;3.33;2.05;;;34.50;55.90;;;;;;10925943;32;20061;-72
2023/07/09 18:13:39;;;;;;;4.75;2.17;;;34.10;56.70;;;;;;10939568;32;20057;-72
2023/07/09 18:19:42;;;;;;;5.80;2.25;;;33.60;58.00;;;;;;10929391;32;20042;-72
2023/07/09 18:25:46;;;;;;;4.87;1.98;;;33.10;59.30;;;;;;10942740;32;20345;-72
2023/07/09 18:31:48;;;;;;;5.20;2.47;;;32.80;60.10;;;;;;10936982;32;20064;-72
2023/07/09 18:37:53;;;;;;;3.45;1.75;;;32.70;60.60;;;;;;10941902;32;20061;-72
2023/07/09 18:43:55;;;;;;;3.97;2.08;;;32.40;61.20;;;;;;10942251;32;20046;-72
2023/07/09 18:49:57;;;;;;;3.60;1.98;;;32.30;62.00;;;;;;10940523;32;20451;-72
2023/07/09 18:55:59;;;;;;;2.55;1.37;;;32.20;62.50;;;;;;10928248;32;20318;-72
2023/07/09 19:02:01;;;;;;;3.62;1.70;;;32.00;62.80;;;;;;10941913;32;20019;-72
2023/07/09 19:08:18;;;;;;;4.05;2.20;;;31.90;62.80;;;;;;10927931;32;20035;-72
2023/07/09 19:14:21;;;;;;;;;;;31.80;63.10;;;;;;10941961;32;20027;-72
2023/07/09 19:20:24;;;;;;;2.15;1.30;;;31.70;63.40;;;;;;10923771;32;19961;-72
2023/07/09 19:26:27;;;;;;;1.83;1.12;;;31.60;64.00;;;;;;10941455;32;20041;-72
2023/07/09 19:32:29;;;;;;;2.20;1.33;;;31.60;64.50;;;;;;10941254;32;20026;-72
2023/07/09 19:38:31;;;;;;;3.30;1.45;;;31.40;65.20;;;;;;10927868;32;20061;-72
2023/07/09 19:44:33;;;;;;;2.42;1.58;;;31.40;65.60;;;;;;10941098;32;20427;-72
2023/07/09 19:50:37;;;;;;;2.75;1.58;;;31.30;66.10;;;;;;10941978;32;20023;-72
2023/07/09 19:56:44;;;;;;;4.80;2.10;;;31.30;66.60;;;;;;10946495;32;20050;-72
2023/07/09 20:02:47;;;;;;;2.77;1.77;;;31.20;66.90;;;;;;10947322;32;20023;-72
2023/07/09 20:08:49;;;;;;;1.85;0.93;;;31.10;67.50;;;;;;10947664;32;20015;-72
2023/07/09 20:14:51;;;;;;;2.92;1.45;;;31.10;67.70;;;;;;10947474;32;20023;-72
2023/07/09 20:20:56;;;;;;;2.60;1.83;;;31.00;68.10;;;;;;10947343;32;20042;-72
2023/07/09 20:26:58;;;;;;;3.42;1.58;;;30.90;69.00;;;;;;10933502;32;20058;-72
2023/07/09 20:33:02;;;;;;;2.28;1.65;;;30.90;69.70;;;;;;10946896;32;20027;-72
2023/07/09 20:39:16;;;;;;;2.87;1.35;;;30.80;69.80;;;;;;10946660;32;20011;-72
2023/07/09 20:45:22;;;;;;;2.15;1.33;;;30.80;70.00;;;;;;10947642;32;20046;-72
2023/07/09 20:51:24;;;;;;;5.12;1.90;;;30.70;70.20;;;;;;10946267;32;20417;-72
2023/07/09 20:57:27;;;;;;;2.42;1.42;;;30.60;70.50;;;;;;10946081;32;20050;-73
2023/07/09 21:03:29;;;;;;;5.12;2.95;;;30.60;70.80;;;;;;10945153;32;20015;-74
2023/07/09 21:09:32;;;;;;;2.75;1.50;;;30.60;71.20;;;;;;10944904;32;20027;-72
2023/07/09 21:15:34;;;;;;;2.03;1.42;;;30.60;71.40;;;;;;10945398;32;20392;-72
2023/07/09 21:21:36;;;;;;;5.47;1.50;;;30.50;71.50;;;;;;10931799;32;20341;-72
2023/07/09 21:27:38;;;;;;;10.00;2.28;;;30.40;71.60;;;;;;10922052;32;20409;-72
2023/07/09 21:33:40;;;;;;;5.28;2.40;;;30.30;71.80;;;;;;10893746;32;20031;-72
2023/07/09 21:39:42;;;;;;;3.67;2.47;;;30.20;72.20;;;;;;10933833;32;20466;-72
2023/07/09 21:45:46;;;;;;;4.22;2.47;;;30.20;72.40;;;;;;10919499;32;20030;-72
2023/07/09 21:51:48;;;;;;;2.80;1.80;;;30.20;72.80;;;;;;10944039;32;20406;-72
2023/07/09 21:57:51;;;;;;;4.32;2.53;;;30.10;72.90;;;;;;10934794;32;20402;-72
2023/07/09 22:03:53;;;;;;;5.03;1.95;;;30.10;73.10;;;;;;10904153;32;20023;-72
2023/07/09 22:09:55;;;;;;;2.97;2.15;;;30.00;73.20;;;;;;10892040;32;20031;-72
2023/07/09 22:15:59;;;;;;;2.47;1.70;;;29.90;74.20;;;;;;10914322;32;20027;-72
2023/07/09 22:22:01;;;;;;;6.05;2.05;;;29.70;75.30;;;;;;10929617;32;20007;-72
2023/07/09 22:28:03;;;;;;;3.60;2.10;;;29.60;75.40;;;;;;10942901;32;20054;-72
2023/07/09 22:34:23;;;;;;;2.67;1.95;;;29.60;76.00;;;;;;10942591;32;20054;-72
2023/07/09 22:40:28;;;;;;;4.95;2.08;;;29.60;75.60;;;;;;10942515;32;20019;-72
2023/07/09 22:46:30;;;;;;;6.80;3.25;;;29.50;75.60;;;;;;10929003;32;20072;-72
2023/07/09 22:52:32;;;;;;;4.03;2.35;;;29.30;75.70;;;;;;10929127;32;20061;-72
2023/07/09 22:58:34;;;;;;;3.55;2.35;;;29.30;75.90;;;;;;10941989;32;20019;-72
2023/07/09 23:04:36;;;;;;;3.15;2.10;;;29.30;76.20;;;;;;10941774;32;20066;-72
2023/07/09 23:10:38;;;;;;;3.95;2.33;;;29.30;76.50;;;;;;10941769;32;20023;-71
2023/07/09 23:16:40;;;;;;;3.53;1.87;;;29.30;76.50;;;;;;10941583;32;20014;-72
2023/07/09 23:22:43;;;;;;;6.45;2.72;;;29.20;76.40;;;;;;10941677;32;20073;-72
2023/07/09 23:28:45;;;;;;;4.05;2.25;;;29.10;76.50;;;;;;10965320;27;20027;-71
2023/07/09 23:34:46;;;;;;;4.80;2.58;;;29.00;76.50;;;;;;10986519;32;20038;-72
2023/07/09 23:40:49;;;;;;;3.35;2.37;;;29.10;76.40;;;;;;10986451;32;20381;-72
2023/07/09 23:46:55;;;;;;;7.43;2.90;;;29.00;76.50;;;;;;10986283;32;20034;-72
2023/07/09 23:52:58;;;;;;;4.90;2.77;;;28.90;76.60;;;;;;10985953;32;20439;-72
2023/07/09 23:59:02;;;;;;;3.55;2.30;;;28.90;76.60;;;;;;10972286;32;20121;-72
